Browning, Illinois
Current Conditions -  °F | °C
As of 10:35 AM on Friday 31 Oct 2014 (Local Time) from KIJX Reporting Station
Broken Clouds Broken Clouds  
Wind Chill: 31°   Ceiling: 3500
Heat Index: 40°   Visibility: 10mi
Dew Point: 25°   Wind: 21mph
Humidity: 54%   Direction: 350°N
Pressure: 30.3"   Gusts: 29mph
Location:  40.13°N, 90.37°W
Report Text: KIJX 311535Z AUTO 35018G25KT 10SM BKN035 05/M04 A3030 RMK AO2 T00461039
Loading
Personal Weather Stations






























Interactive Weather Map
Tropical Storm Tracking
New forecast layout! Learn more

10-Day Weather Forecast

Advertisements
Track Severe Weather on mobile